sensor_id;sensor_type;location;lat;lon;timestamp;temperature;humidity
53274;DHT22;39163;52.696;6.758;2023-02-28T00:00:24;3.80;99.90
53274;DHT22;39163;52.696;6.758;2023-02-28T00:02:52;3.80;99.90
53274;DHT22;39163;52.696;6.758;2023-02-28T00:05:25;3.80;99.90
53274;DHT22;39163;52.696;6.758;2023-02-28T00:07:51;3.80;99.90
53274;DHT22;39163;52.696;6.758;2023-02-28T00:10:27;3.80;99.90
53274;DHT22;39163;52.696;6.758;2023-02-28T00:12:53;3.80;99.90
53274;DHT22;39163;52.696;6.758;2023-02-28T00:15:19;3.80;99.90
53274;DHT22;39163;52.696;6.758;2023-02-28T00:17:48;3.80;99.90
53274;DHT22;39163;52.696;6.758;2023-02-28T00:20:17;3.70;99.90
53274;DHT22;39163;52.696;6.758;2023-02-28T00:22:49;3.70;99.90
53274;DHT22;39163;52.696;6.758;2023-02-28T00:25:30;3.80;99.90
53274;DHT22;39163;52.696;6.758;2023-02-28T00:27:56;3.70;99.90
53274;DHT22;39163;52.696;6.758;2023-02-28T00:30:22;3.70;99.90
53274;DHT22;39163;52.696;6.758;2023-02-28T00:32:53;3.70;99.90
53274;DHT22;39163;52.696;6.758;2023-02-28T00:35:19;3.80;99.90
53274;DHT22;39163;52.696;6.758;2023-02-28T00:37:51;3.80;99.90
53274;DHT22;39163;52.696;6.758;2023-02-28T00:40:16;3.80;99.90
53274;DHT22;39163;52.696;6.758;2023-02-28T00:42:42;3.80;99.90
53274;DHT22;39163;52.696;6.758;2023-02-28T00:45:07;3.80;99.90
53274;DHT22;39163;52.696;6.758;2023-02-28T00:47:33;3.80;99.90
53274;DHT22;39163;52.696;6.758;2023-02-28T00:49:59;3.80;99.90
53274;DHT22;39163;52.696;6.758;2023-02-28T00:52:31;3.80;99.90
53274;DHT22;39163;52.696;6.758;2023-02-28T00:54:56;3.80;99.90
53274;DHT22;39163;52.696;6.758;2023-02-28T00:57:22;3.80;99.90
53274;DHT22;39163;52.696;6.758;2023-02-28T00:59:51;3.90;99.90
53274;DHT22;39163;52.696;6.758;2023-02-28T01:02:31;3.80;99.90
53274;DHT22;39163;52.696;6.758;2023-02-28T01:04:57;3.80;99.90
53274;DHT22;39163;52.696;6.758;2023-02-28T01:07:28;3.80;99.90
53274;DHT22;39163;52.696;6.758;2023-02-28T01:09:54;3.80;99.90
53274;DHT22;39163;52.696;6.758;2023-02-28T01:12:20;3.90;99.90
53274;DHT22;39163;52.696;6.758;2023-02-28T01:14:45;3.80;99.90
53274;DHT22;39163;52.696;6.758;2023-02-28T01:17:14;3.80;99.90
53274;DHT22;39163;52.696;6.758;2023-02-28T01:19:48;3.80;99.90
53274;DHT22;39163;52.696;6.758;2023-02-28T01:22:14;3.80;99.90
53274;DHT22;39163;52.696;6.758;2023-02-28T01:24:44;3.90;99.90
53274;DHT22;39163;52.696;6.758;2023-02-28T01:27:15;3.90;99.90
53274;DHT22;39163;52.696;6.758;2023-02-28T01:29:47;3.80;99.90
53274;DHT22;39163;52.696;6.758;2023-02-28T01:32:13;3.90;99.90
53274;DHT22;39163;52.696;6.758;2023-02-28T01:34:38;3.90;99.90
53274;DHT22;39163;52.696;6.758;2023-02-28T01:37:04;3.90;99.90
53274;DHT22;39163;52.696;6.758;2023-02-28T01:39:29;3.90;99.90
53274;DHT22;39163;52.696;6.758;2023-02-28T01:41:55;3.90;99.90
53274;DHT22;39163;52.696;6.758;2023-02-28T01:47:05;3.90;99.90
53274;DHT22;39163;52.696;6.758;2023-02-28T01:49:33;3.90;99.90
53274;DHT22;39163;52.696;6.758;2023-02-28T01:51:59;3.90;99.90
53274;DHT22;39163;52.696;6.758;2023-02-28T01:54:25;3.90;99.90
53274;DHT22;39163;52.696;6.758;2023-02-28T01:57:05;3.90;99.90
53274;DHT22;39163;52.696;6.758;2023-02-28T01:59:33;3.90;99.90
53274;DHT22;39163;52.696;6.758;2023-02-28T02:02:01;3.90;99.90
53274;DHT22;39163;52.696;6.758;2023-02-28T02:04:31;3.90;99.90
53274;DHT22;39163;52.696;6.758;2023-02-28T02:06:57;3.90;99.90
53274;DHT22;39163;52.696;6.758;2023-02-28T02:09:23;3.80;99.90
53274;DHT22;39163;52.696;6.758;2023-02-28T02:11:52;3.80;99.90
53274;DHT22;39163;52.696;6.758;2023-02-28T02:14:31;3.80;99.90
53274;DHT22;39163;52.696;6.758;2023-02-28T02:40:20;3.70;99.90
53274;DHT22;39163;52.696;6.758;2023-02-28T02:42:58;3.70;99.90
53274;DHT22;39163;52.696;6.758;2023-02-28T02:45:31;3.80;99.90
53274;DHT22;39163;52.696;6.758;2023-02-28T02:48:01;3.70;99.90
53274;DHT22;39163;52.696;6.758;2023-02-28T02:50:36;3.70;99.90
53274;DHT22;39163;52.696;6.758;2023-02-28T02:53:02;3.80;99.90
53274;DHT22;39163;52.696;6.758;2023-02-28T02:55:29;3.80;99.90
53274;DHT22;39163;52.696;6.758;2023-02-28T02:57:58;3.80;99.90
53274;DHT22;39163;52.696;6.758;2023-02-28T03:00:27;3.80;99.90
53274;DHT22;39163;52.696;6.758;2023-02-28T03:02:55;3.70;99.90
53274;DHT22;39163;52.696;6.758;2023-02-28T03:05:23;3.70;99.90
53274;DHT22;39163;52.696;6.758;2023-02-28T03:07:50;3.80;99.90
53274;DHT22;39163;52.696;6.758;2023-02-28T03:10:32;3.70;99.90
53274;DHT22;39163;52.696;6.758;2023-02-28T03:13:00;3.80;99.90
53274;DHT22;39163;52.696;6.758;2023-02-28T03:15:31;3.80;99.90
53274;DHT22;39163;52.696;6.758;2023-02-28T03:18:04;3.70;99.90
53274;DHT22;39163;52.696;6.758;2023-02-28T03:20:36;3.70;99.90
53274;DHT22;39163;52.696;6.758;2023-02-28T03:41:01;3.60;99.90
53274;DHT22;39163;52.696;6.758;2023-02-28T03:43:29;3.60;99.90
53274;DHT22;39163;52.696;6.758;2023-02-28T03:45:57;3.60;99.90
53274;DHT22;39163;52.696;6.758;2023-02-28T03:48:27;3.60;99.90
53274;DHT22;39163;52.696;6.758;2023-02-28T03:50:56;3.60;99.90
53274;DHT22;39163;52.696;6.758;2023-02-28T03:53:31;3.60;99.90
53274;DHT22;39163;52.696;6.758;2023-02-28T04:01:12;3.40;99.90
53274;DHT22;39163;52.696;6.758;2023-02-28T04:03:39;3.40;99.90
53274;DHT22;39163;52.696;6.758;2023-02-28T04:06:12;3.30;99.90
53274;DHT22;39163;52.696;6.758;2023-02-28T04:08:38;3.30;99.90
53274;DHT22;39163;52.696;6.758;2023-02-28T04:11:06;3.30;99.90
53274;DHT22;39163;52.696;6.758;2023-02-28T04:13:36;3.30;99.90
53274;DHT22;39163;52.696;6.758;2023-02-28T04:16:05;3.30;99.90
53274;DHT22;39163;52.696;6.758;2023-02-28T04:18:37;3.30;99.90
53274;DHT22;39163;52.696;6.758;2023-02-28T04:21:03;3.30;99.90
53274;DHT22;39163;52.696;6.758;2023-02-28T04:23:30;3.30;99.90
53274;DHT22;39163;52.696;6.758;2023-02-28T04:25:55;3.30;99.90
53274;DHT22;39163;52.696;6.758;2023-02-28T04:28:21;3.30;99.90
53274;DHT22;39163;52.696;6.758;2023-02-28T04:30:46;3.30;99.90
53274;DHT22;39163;52.696;6.758;2023-02-28T04:33:12;3.30;99.90
53274;DHT22;39163;52.696;6.758;2023-02-28T04:35:38;3.30;99.90
53274;DHT22;39163;52.696;6.758;2023-02-28T04:38:03;3.30;99.90
53274;DHT22;39163;52.696;6.758;2023-02-28T04:40:29;3.30;99.90
53274;DHT22;39163;52.696;6.758;2023-02-28T04:42:54;3.30;99.90
53274;DHT22;39163;52.696;6.758;2023-02-28T04:45:20;3.30;99.90
53274;DHT22;39163;52.696;6.758;2023-02-28T04:47:45;3.30;99.90
53274;DHT22;39163;52.696;6.758;2023-02-28T04:50:11;3.40;99.90
53274;DHT22;39163;52.696;6.758;2023-02-28T04:52:37;3.30;99.90
53274;DHT22;39163;52.696;6.758;2023-02-28T04:55:02;3.30;99.90
53274;DHT22;39163;52.696;6.758;2023-02-28T04:57:28;3.30;99.90
53274;DHT22;39163;52.696;6.758;2023-02-28T04:59:55;3.30;99.90
53274;DHT22;39163;52.696;6.758;2023-02-28T05:02:21;3.30;99.90
53274;DHT22;39163;52.696;6.758;2023-02-28T05:04:46;3.30;99.90
53274;DHT22;39163;52.696;6.758;2023-02-28T05:07:12;3.30;99.90
53274;DHT22;39163;52.696;6.758;2023-02-28T05:09:37;3.30;99.90
53274;DHT22;39163;52.696;6.758;2023-02-28T05:12:03;3.40;99.90
53274;DHT22;39163;52.696;6.758;2023-02-28T05:14:28;3.30;99.90
53274;DHT22;39163;52.696;6.758;2023-02-28T05:16:54;3.40;99.90
53274;DHT22;39163;52.696;6.758;2023-02-28T05:19:20;3.40;99.90
53274;DHT22;39163;52.696;6.758;2023-02-28T05:21:50;3.40;99.90
53274;DHT22;39163;52.696;6.758;2023-02-28T05:24:16;3.40;99.90
53274;DHT22;39163;52.696;6.758;2023-02-28T05:26:48;3.30;99.90
53274;DHT22;39163;52.696;6.758;2023-02-28T05:29:14;3.40;99.90
53274;DHT22;39163;52.696;6.758;2023-02-28T05:31:39;3.30;99.90
53274;DHT22;39163;52.696;6.758;2023-02-28T05:34:05;3.40;99.90
53274;DHT22;39163;52.696;6.758;2023-02-28T05:36:31;3.40;99.90
53274;DHT22;39163;52.696;6.758;2023-02-28T05:38:57;3.40;99.90
53274;DHT22;39163;52.696;6.758;2023-02-28T05:41:22;3.30;99.90
53274;DHT22;39163;52.696;6.758;2023-02-28T05:43:48;3.30;99.90
53274;DHT22;39163;52.696;6.758;2023-02-28T05:46:14;3.30;99.90
53274;DHT22;39163;52.696;6.758;2023-02-28T05:48:40;3.30;99.90
53274;DHT22;39163;52.696;6.758;2023-02-28T05:51:06;3.30;99.90
53274;DHT22;39163;52.696;6.758;2023-02-28T05:53:32;3.30;99.90
53274;DHT22;39163;52.696;6.758;2023-02-28T05:55:59;3.30;99.90
53274;DHT22;39163;52.696;6.758;2023-02-28T05:58:24;3.30;99.90
53274;DHT22;39163;52.696;6.758;2023-02-28T06:00:59;3.30;99.90
53274;DHT22;39163;52.696;6.758;2023-02-28T06:03:25;3.30;99.90
53274;DHT22;39163;52.696;6.758;2023-02-28T06:05:51;3.30;99.90
53274;DHT22;39163;52.696;6.758;2023-02-28T06:08:16;3.30;99.90
53274;DHT22;39163;52.696;6.758;2023-02-28T06:10:42;3.30;99.90
53274;DHT22;39163;52.696;6.758;2023-02-28T06:13:07;3.30;99.90
53274;DHT22;39163;52.696;6.758;2023-02-28T06:15:33;3.30;99.90
53274;DHT22;39163;52.696;6.758;2023-02-28T06:17:58;3.20;99.90
53274;DHT22;39163;52.696;6.758;2023-02-28T06:20:25;3.30;99.90
53274;DHT22;39163;52.696;6.758;2023-02-28T06:22:55;3.30;99.90
53274;DHT22;39163;52.696;6.758;2023-02-28T06:25:21;3.30;99.90
53274;DHT22;39163;52.696;6.758;2023-02-28T06:27:47;3.30;99.90
53274;DHT22;39163;52.696;6.758;2023-02-28T06:30:13;3.30;99.90
53274;DHT22;39163;52.696;6.758;2023-02-28T06:32:39;3.30;99.90
53274;DHT22;39163;52.696;6.758;2023-02-28T06:35:05;3.30;99.90
53274;DHT22;39163;52.696;6.758;2023-02-28T06:37:31;3.30;99.90
53274;DHT22;39163;52.696;6.758;2023-02-28T06:39:57;3.30;99.90
53274;DHT22;39163;52.696;6.758;2023-02-28T06:42:23;3.20;99.90
53274;DHT22;39163;52.696;6.758;2023-02-28T06:44:54;3.30;99.90
53274;DHT22;39163;52.696;6.758;2023-02-28T06:47:20;3.30;99.90
53274;DHT22;39163;52.696;6.758;2023-02-28T06:49:45;3.40;99.90
53274;DHT22;39163;52.696;6.758;2023-02-28T06:52:11;3.40;99.90
53274;DHT22;39163;52.696;6.758;2023-02-28T06:54:37;3.40;99.90
53274;DHT22;39163;52.696;6.758;2023-02-28T06:57:02;3.40;99.90
53274;DHT22;39163;52.696;6.758;2023-02-28T06:59:28;3.50;99.90
53274;DHT22;39163;52.696;6.758;2023-02-28T07:01:53;3.50;99.90
53274;DHT22;39163;52.696;6.758;2023-02-28T07:04:20;3.60;99.90
53274;DHT22;39163;52.696;6.758;2023-02-28T07:06:46;3.70;99.90
53274;DHT22;39163;52.696;6.758;2023-02-28T07:09:11;3.70;99.90
53274;DHT22;39163;52.696;6.758;2023-02-28T07:11:37;3.80;99.90
53274;DHT22;39163;52.696;6.758;2023-02-28T07:14:03;3.90;99.90
53274;DHT22;39163;52.696;6.758;2023-02-28T07:16:28;4.00;99.90
53274;DHT22;39163;52.696;6.758;2023-02-28T07:18:54;4.10;99.90
53274;DHT22;39163;52.696;6.758;2023-02-28T07:21:20;4.30;99.90
53274;DHT22;39163;52.696;6.758;2023-02-28T07:23:46;4.40;99.90
53274;DHT22;39163;52.696;6.758;2023-02-28T07:26:13;4.60;99.90
53274;DHT22;39163;52.696;6.758;2023-02-28T07:28:40;4.90;99.90
53274;DHT22;39163;52.696;6.758;2023-02-28T07:31:06;4.80;99.90
53274;DHT22;39163;52.696;6.758;2023-02-28T07:33:32;4.70;99.90
53274;DHT22;39163;52.696;6.758;2023-02-28T07:36:03;4.60;99.90
53274;DHT22;39163;52.696;6.758;2023-02-28T07:38:29;4.60;99.90
53274;DHT22;39163;52.696;6.758;2023-02-28T07:40:55;4.50;99.90
53274;DHT22;39163;52.696;6.758;2023-02-28T07:43:20;4.40;99.90
53274;DHT22;39163;52.696;6.758;2023-02-28T07:45:46;4.30;99.90
53274;DHT22;39163;52.696;6.758;2023-02-28T07:48:13;4.20;99.90
53274;DHT22;39163;52.696;6.758;2023-02-28T07:50:38;4.10;99.90
53274;DHT22;39163;52.696;6.758;2023-02-28T07:53:04;4.00;99.90
53274;DHT22;39163;52.696;6.758;2023-02-28T07:55:29;3.90;99.90
53274;DHT22;39163;52.696;6.758;2023-02-28T07:57:56;3.80;99.90
53274;DHT22;39163;52.696;6.758;2023-02-28T08:00:22;3.70;99.90
53274;DHT22;39163;52.696;6.758;2023-02-28T08:02:47;3.60;99.90
53274;DHT22;39163;52.696;6.758;2023-02-28T08:05:13;3.50;99.90
53274;DHT22;39163;52.696;6.758;2023-02-28T08:07:39;3.50;99.90
53274;DHT22;39163;52.696;6.758;2023-02-28T08:10:04;3.50;99.90
53274;DHT22;39163;52.696;6.758;2023-02-28T08:12:30;3.70;99.90
53274;DHT22;39163;52.696;6.758;2023-02-28T08:14:56;3.80;99.90
53274;DHT22;39163;52.696;6.758;2023-02-28T08:17:22;3.70;99.90
53274;DHT22;39163;52.696;6.758;2023-02-28T08:19:47;3.80;99.90
53274;DHT22;39163;52.696;6.758;2023-02-28T08:22:13;3.80;99.90
53274;DHT22;39163;52.696;6.758;2023-02-28T08:24:40;3.80;99.90
53274;DHT22;39163;52.696;6.758;2023-02-28T08:27:06;3.90;99.90
53274;DHT22;39163;52.696;6.758;2023-02-28T08:29:32;4.20;99.90
53274;DHT22;39163;52.696;6.758;2023-02-28T08:31:58;4.20;99.90
53274;DHT22;39163;52.696;6.758;2023-02-28T08:34:24;4.10;99.90
53274;DHT22;39163;52.696;6.758;2023-02-28T08:36:49;4.30;99.90
53274;DHT22;39163;52.696;6.758;2023-02-28T08:39:15;4.30;99.90
53274;DHT22;39163;52.696;6.758;2023-02-28T08:41:41;4.10;99.90
53274;DHT22;39163;52.696;6.758;2023-02-28T08:44:07;4.10;99.90
53274;DHT22;39163;52.696;6.758;2023-02-28T08:46:33;4.10;99.90
53274;DHT22;39163;52.696;6.758;2023-02-28T08:48:58;4.20;99.90
53274;DHT22;39163;52.696;6.758;2023-02-28T08:51:26;4.50;99.90
53274;DHT22;39163;52.696;6.758;2023-02-28T08:53:53;4.90;99.90
53274;DHT22;39163;52.696;6.758;2023-02-28T08:56:19;5.10;99.90
53274;DHT22;39163;52.696;6.758;2023-02-28T08:58:46;5.30;99.90
53274;DHT22;39163;52.696;6.758;2023-02-28T09:03:38;5.60;99.90
53274;DHT22;39163;52.696;6.758;2023-02-28T09:06:03;5.60;99.90
53274;DHT22;39163;52.696;6.758;2023-02-28T09:08:30;5.80;99.90
53274;DHT22;39163;52.696;6.758;2023-02-28T09:10:56;6.00;99.90
53274;DHT22;39163;52.696;6.758;2023-02-28T09:13:23;6.30;99.90
53274;DHT22;39163;52.696;6.758;2023-02-28T09:15:49;6.40;99.90
53274;DHT22;39163;52.696;6.758;2023-02-28T09:18:15;6.40;99.90
53274;DHT22;39163;52.696;6.758;2023-02-28T09:20:41;6.50;99.90
53274;DHT22;39163;52.696;6.758;2023-02-28T09:23:07;6.50;99.90
53274;DHT22;39163;52.696;6.758;2023-02-28T09:25:33;6.60;99.90
53274;DHT22;39163;52.696;6.758;2023-02-28T09:27:58;6.80;99.90
53274;DHT22;39163;52.696;6.758;2023-02-28T09:30:24;6.80;99.90
53274;DHT22;39163;52.696;6.758;2023-02-28T09:32:50;6.90;99.90
53274;DHT22;39163;52.696;6.758;2023-02-28T09:35:19;6.80;99.90
53274;DHT22;39163;52.696;6.758;2023-02-28T09:37:46;6.70;99.90
53274;DHT22;39163;52.696;6.758;2023-02-28T09:40:12;6.70;99.90
53274;DHT22;39163;52.696;6.758;2023-02-28T09:42:40;6.90;99.90
53274;DHT22;39163;52.696;6.758;2023-02-28T09:45:07;7.30;99.90
53274;DHT22;39163;52.696;6.758;2023-02-28T09:47:38;7.20;98.00
53274;DHT22;39163;52.696;6.758;2023-02-28T09:52:50;6.90;95.20
53274;DHT22;39163;52.696;6.758;2023-02-28T09:55:30;7.00;96.00
53274;DHT22;39163;52.696;6.758;2023-02-28T09:57:57;7.20;96.90
53274;DHT22;39163;52.696;6.758;2023-02-28T10:00:39;7.60;96.00
53274;DHT22;39163;52.696;6.758;2023-02-28T10:05:38;8.20;96.30
53274;DHT22;39163;52.696;6.758;2023-02-28T10:08:19;8.30;96.10
53274;DHT22;39163;52.696;6.758;2023-02-28T10:10:53;8.40;95.90
53274;DHT22;39163;52.696;6.758;2023-02-28T10:15:46;8.90;96.00
53274;DHT22;39163;52.696;6.758;2023-02-28T10:18:15;9.10;96.10
53274;DHT22;39163;52.696;6.758;2023-02-28T10:20:45;9.20;95.50
53274;DHT22;39163;52.696;6.758;2023-02-28T10:23:20;9.30;95.40
53274;DHT22;39163;52.696;6.758;2023-02-28T10:25:49;9.40;95.10
53274;DHT22;39163;52.696;6.758;2023-02-28T10:28:15;9.20;93.60
53274;DHT22;39163;52.696;6.758;2023-02-28T10:30:49;9.30;93.90
53274;DHT22;39163;52.696;6.758;2023-02-28T10:33:17;9.40;93.40
53274;DHT22;39163;52.696;6.758;2023-02-28T10:35:44;9.60;92.90
53274;DHT22;39163;52.696;6.758;2023-02-28T10:38:14;9.60;91.80
53274;DHT22;39163;52.696;6.758;2023-02-28T10:40:40;9.70;93.10
53274;DHT22;39163;52.696;6.758;2023-02-28T10:43:17;9.40;92.00
53274;DHT22;39163;52.696;6.758;2023-02-28T10:45:55;9.40;93.50
53274;DHT22;39163;52.696;6.758;2023-02-28T10:48:32;9.70;92.10
53274;DHT22;39163;52.696;6.758;2023-02-28T10:50:58;9.60;92.10
53274;DHT22;39163;52.696;6.758;2023-02-28T10:53:45;9.40;91.40
53274;DHT22;39163;52.696;6.758;2023-02-28T10:56:18;9.80;92.40
53274;DHT22;39163;52.696;6.758;2023-02-28T10:59:02;10.00;91.40
53274;DHT22;39163;52.696;6.758;2023-02-28T11:01:36;10.30;92.00
53274;DHT22;39163;52.696;6.758;2023-02-28T11:04:16;10.50;91.40
53274;DHT22;39163;52.696;6.758;2023-02-28T11:06:42;10.80;90.30
53274;DHT22;39163;52.696;6.758;2023-02-28T11:09:16;11.00;90.90
53274;DHT22;39163;52.696;6.758;2023-02-28T11:11:44;11.00;90.50
53274;DHT22;39163;52.696;6.758;2023-02-28T11:14:18;11.20;90.40
53274;DHT22;39163;52.696;6.758;2023-02-28T11:16:44;11.30;90.10
53274;DHT22;39163;52.696;6.758;2023-02-28T11:19:16;11.50;90.50
53274;DHT22;39163;52.696;6.758;2023-02-28T11:21:47;11.60;88.60
53274;DHT22;39163;52.696;6.758;2023-02-28T11:24:22;11.60;88.30
53274;DHT22;39163;52.696;6.758;2023-02-28T11:26:49;11.70;90.30
53274;DHT22;39163;52.696;6.758;2023-02-28T11:29:19;11.60;87.00
53274;DHT22;39163;52.696;6.758;2023-02-28T11:34:32;11.70;86.10
53274;DHT22;39163;52.696;6.758;2023-02-28T11:36:59;11.70;87.00
53274;DHT22;39163;52.696;6.758;2023-02-28T11:39:26;11.80;88.00
53274;DHT22;39163;52.696;6.758;2023-02-28T11:55:07;11.70;85.60
53274;DHT22;39163;52.696;6.758;2023-02-28T12:09:02;12.10;86.10
53274;DHT22;39163;52.696;6.758;2023-02-28T12:14:06;12.10;82.30
53274;DHT22;39163;52.696;6.758;2023-02-28T12:19:19;12.20;84.00
53274;DHT22;39163;52.696;6.758;2023-02-28T12:26:59;12.10;85.10
53274;DHT22;39163;52.696;6.758;2023-02-28T12:29:30;12.10;83.10
53274;DHT22;39163;52.696;6.758;2023-02-28T12:31:58;12.10;81.10
53274;DHT22;39163;52.696;6.758;2023-02-28T12:34:47;12.20;82.20
53274;DHT22;39163;52.696;6.758;2023-02-28T12:37:13;12.20;84.40
53274;DHT22;39163;52.696;6.758;2023-02-28T12:39:41;12.40;82.60
53274;DHT22;39163;52.696;6.758;2023-02-28T12:42:28;12.20;79.60
53274;DHT22;39163;52.696;6.758;2023-02-28T12:45:40;12.40;84.30
53274;DHT22;39163;52.696;6.758;2023-02-28T12:47:44;12.40;81.00
53274;DHT22;39163;52.696;6.758;2023-02-28T12:50:11;12.50;81.20
53274;DHT22;39163;52.696;6.758;2023-02-28T12:55:31;12.60;82.10
53274;DHT22;39163;52.696;6.758;2023-02-28T13:00:34;12.60;79.10
53274;DHT22;39163;52.696;6.758;2023-02-28T13:03:20;12.60;80.10
53274;DHT22;39163;52.696;6.758;2023-02-28T13:05:51;12.60;79.80
53274;DHT22;39163;52.696;6.758;2023-02-28T13:11:05;12.70;79.50
53274;DHT22;39163;52.696;6.758;2023-02-28T13:13:31;12.80;79.40
53274;DHT22;39163;52.696;6.758;2023-02-28T13:18:27;12.80;80.50
53274;DHT22;39163;52.696;6.758;2023-02-28T13:20:56;12.70;78.60
53274;DHT22;39163;52.696;6.758;2023-02-28T13:23:55;12.70;79.30
53274;DHT22;39163;52.696;6.758;2023-02-28T13:31:28;12.60;80.50
53274;DHT22;39163;52.696;6.758;2023-02-28T13:34:12;12.50;79.90
53274;DHT22;39163;52.696;6.758;2023-02-28T13:36:38;12.30;78.60
53274;DHT22;39163;52.696;6.758;2023-02-28T13:39:44;12.10;78.30
53274;DHT22;39163;52.696;6.758;2023-02-28T13:41:59;12.00;79.70
53274;DHT22;39163;52.696;6.758;2023-02-28T13:47:41;11.80;79.20
53274;DHT22;39163;52.696;6.758;2023-02-28T13:55:25;11.80;79.70
53274;DHT22;39163;52.696;6.758;2023-02-28T13:57:58;11.80;78.10
53274;DHT22;39163;52.696;6.758;2023-02-28T14:00:43;11.90;79.60
53274;DHT22;39163;52.696;6.758;2023-02-28T14:03:35;11.90;75.60
53274;DHT22;39163;52.696;6.758;2023-02-28T14:08:57;11.90;78.30
53274;DHT22;39163;52.696;6.758;2023-02-28T14:11:35;11.90;76.80
53274;DHT22;39163;52.696;6.758;2023-02-28T14:14:02;12.00;75.70
53274;DHT22;39163;52.696;6.758;2023-02-28T14:16:52;12.00;75.40
53274;DHT22;39163;52.696;6.758;2023-02-28T14:19:24;11.90;74.50
53274;DHT22;39163;52.696;6.758;2023-02-28T14:37:49;11.50;72.70
53274;DHT22;39163;52.696;6.758;2023-02-28T14:40:32;11.30;73.10
53274;DHT22;39163;52.696;6.758;2023-02-28T14:42:59;11.10;72.50
53274;DHT22;39163;52.696;6.758;2023-02-28T14:45:26;11.10;73.90
53274;DHT22;39163;52.696;6.758;2023-02-28T14:47:52;11.30;75.20
53274;DHT22;39163;52.696;6.758;2023-02-28T14:50:31;11.40;76.10
53274;DHT22;39163;52.696;6.758;2023-02-28T14:52:57;11.40;74.10
53274;DHT22;39163;52.696;6.758;2023-02-28T14:55:43;11.50;74.60
53274;DHT22;39163;52.696;6.758;2023-02-28T14:58:19;11.60;75.00
53274;DHT22;39163;52.696;6.758;2023-02-28T15:01:03;11.30;71.40
53274;DHT22;39163;52.696;6.758;2023-02-28T15:03:35;11.20;72.90
53274;DHT22;39163;52.696;6.758;2023-02-28T15:06:02;11.20;73.70
53274;DHT22;39163;52.696;6.758;2023-02-28T15:08:28;11.20;74.40
53274;DHT22;39163;52.696;6.758;2023-02-28T15:13:23;11.00;73.70
53274;DHT22;39163;52.696;6.758;2023-02-28T15:15:55;10.80;72.60
53274;DHT22;39163;52.696;6.758;2023-02-28T15:18:30;10.80;74.50
53274;DHT22;39163;52.696;6.758;2023-02-28T15:20:58;10.60;72.40
53274;DHT22;39163;52.696;6.758;2023-02-28T15:23:27;10.50;73.20
53274;DHT22;39163;52.696;6.758;2023-02-28T15:25:53;10.30;73.40
53274;DHT22;39163;52.696;6.758;2023-02-28T15:28:20;10.10;74.00
53274;DHT22;39163;52.696;6.758;2023-02-28T15:30:51;10.00;75.40
53274;DHT22;39163;52.696;6.758;2023-02-28T15:33:22;9.80;75.90
53274;DHT22;39163;52.696;6.758;2023-02-28T15:35:51;9.70;76.30
53274;DHT22;39163;52.696;6.758;2023-02-28T15:38:28;9.50;76.90
53274;DHT22;39163;52.696;6.758;2023-02-28T15:40:58;9.40;76.80
53274;DHT22;39163;52.696;6.758;2023-02-28T15:43:34;9.30;76.70
53274;DHT22;39163;52.696;6.758;2023-02-28T15:46:01;9.20;77.20
53274;DHT22;39163;52.696;6.758;2023-02-28T15:48:34;9.20;78.60
53274;DHT22;39163;52.696;6.758;2023-02-28T15:51:08;9.10;77.70
53274;DHT22;39163;52.696;6.758;2023-02-28T15:53:54;8.90;77.70
53274;DHT22;39163;52.696;6.758;2023-02-28T15:56:25;8.70;77.50
53274;DHT22;39163;52.696;6.758;2023-02-28T15:59:01;8.50;77.00
53274;DHT22;39163;52.696;6.758;2023-02-28T16:01:36;8.40;76.70
53274;DHT22;39163;52.696;6.758;2023-02-28T16:04:13;8.30;78.30
53274;DHT22;39163;52.696;6.758;2023-02-28T16:06:40;8.20;78.90
53274;DHT22;39163;52.696;6.758;2023-02-28T16:09:15;8.00;78.50
53274;DHT22;39163;52.696;6.758;2023-02-28T16:11:45;8.00;79.30
53274;DHT22;39163;52.696;6.758;2023-02-28T16:14:33;7.90;80.10
53274;DHT22;39163;52.696;6.758;2023-02-28T16:17:07;7.90;81.10
53274;DHT22;39163;52.696;6.758;2023-02-28T16:19:42;7.80;82.20
53274;DHT22;39163;52.696;6.758;2023-02-28T16:22:08;7.60;82.10
53274;DHT22;39163;52.696;6.758;2023-02-28T16:24:34;7.50;82.60
53274;DHT22;39163;52.696;6.758;2023-02-28T16:26:59;7.50;83.30
53274;DHT22;39163;52.696;6.758;2023-02-28T16:29:29;7.40;84.30
53274;DHT22;39163;52.696;6.758;2023-02-28T16:32:04;7.30;84.20
53274;DHT22;39163;52.696;6.758;2023-02-28T16:34:30;7.20;84.40
53274;DHT22;39163;52.696;6.758;2023-02-28T16:36:56;7.10;84.90
53274;DHT22;39163;52.696;6.758;2023-02-28T16:39:21;7.10;85.30
53274;DHT22;39163;52.696;6.758;2023-02-28T16:41:48;7.00;85.40
53274;DHT22;39163;52.696;6.758;2023-02-28T16:44:27;6.90;85.90
53274;DHT22;39163;52.696;6.758;2023-02-28T16:46:53;6.80;86.40
53274;DHT22;39163;52.696;6.758;2023-02-28T16:49:22;6.70;87.10
53274;DHT22;39163;52.696;6.758;2023-02-28T16:51:54;6.60;87.60
53274;DHT22;39163;52.696;6.758;2023-02-28T16:54:28;6.60;88.10
53274;DHT22;39163;52.696;6.758;2023-02-28T16:56:58;6.50;88.70
53274;DHT22;39163;52.696;6.758;2023-02-28T16:59:39;6.50;89.10
53274;DHT22;39163;52.696;6.758;2023-02-28T17:02:10;6.40;90.20
53274;DHT22;39163;52.696;6.758;2023-02-28T17:04:39;6.30;90.30
53274;DHT22;39163;52.696;6.758;2023-02-28T17:07:04;6.30;90.70
53274;DHT22;39163;52.696;6.758;2023-02-28T17:09:30;6.20;91.10
53274;DHT22;39163;52.696;6.758;2023-02-28T17:11:58;6.10;91.30
53274;DHT22;39163;52.696;6.758;2023-02-28T17:14:24;6.00;91.70
53274;DHT22;39163;52.696;6.758;2023-02-28T17:16:59;5.90;92.10
53274;DHT22;39163;52.696;6.758;2023-02-28T17:19:40;5.80;92.50
53274;DHT22;39163;52.696;6.758;2023-02-28T17:22:08;5.70;93.10
53274;DHT22;39163;52.696;6.758;2023-02-28T17:24:34;5.60;93.40
53274;DHT22;39163;52.696;6.758;2023-02-28T17:26:59;5.50;93.60
53274;DHT22;39163;52.696;6.758;2023-02-28T17:29:28;5.40;94.20
53274;DHT22;39163;52.696;6.758;2023-02-28T17:31:59;5.30;94.70
53274;DHT22;39163;52.696;6.758;2023-02-28T17:34:25;5.20;94.90
53274;DHT22;39163;52.696;6.758;2023-02-28T17:36:51;5.10;94.80
53274;DHT22;39163;52.696;6.758;2023-02-28T17:39:29;4.90;96.30
53274;DHT22;39163;52.696;6.758;2023-02-28T17:41:58;4.70;97.80
53274;DHT22;39163;52.696;6.758;2023-02-28T17:44:24;4.60;98.60
53274;DHT22;39163;52.696;6.758;2023-02-28T17:46:50;4.60;99.50
53274;DHT22;39163;52.696;6.758;2023-02-28T17:49:19;4.50;99.30
53274;DHT22;39163;52.696;6.758;2023-02-28T17:51:46;4.50;99.70
53274;DHT22;39163;52.696;6.758;2023-02-28T17:54:12;4.50;99.80
53274;DHT22;39163;52.696;6.758;2023-02-28T17:56:39;4.40;99.90
53274;DHT22;39163;52.696;6.758;2023-02-28T17:59:05;4.30;99.90
53274;DHT22;39163;52.696;6.758;2023-02-28T18:01:30;4.20;99.90
53274;DHT22;39163;52.696;6.758;2023-02-28T18:03:56;4.20;99.90
53274;DHT22;39163;52.696;6.758;2023-02-28T18:06:23;4.10;99.90
53274;DHT22;39163;52.696;6.758;2023-02-28T18:08:49;4.00;99.90
53274;DHT22;39163;52.696;6.758;2023-02-28T18:11:17;3.90;99.90
53274;DHT22;39163;52.696;6.758;2023-02-28T18:13:52;3.90;99.90
53274;DHT22;39163;52.696;6.758;2023-02-28T18:16:18;3.90;99.90